N2KG KAVL-KMHT
Flight info
| Callsign | N2KG |
|---|---|
| Flight time | N/A |
| Altitude | 21000 |
| Route | SUG MEGXE/N0201F170 T437 ZOOMS V140 HOBOS/N0205F210 LDN FDK JOANE FLOAT HAAYS STUBY TOMES CLOWW |
| Aircraft | BT36/L-BDFGLORY/S |
Departure
| Time | N/A |
|---|---|
| Airport | Asheville Regional Airport (KAVL) |
Arrival
| Time | 2026-04-12 03:40 |
|---|---|
| Airport | Manchester-Boston Regional Airport (KMHT) |
| Time | Latitude | Longitude | Altitude | Speed | Heading |
|---|---|---|---|---|---|
| 2026-04-12 02:01 | 39.31849 | -77.51652 | 21413 ft | 234 kts | 41° |
| 2026-04-12 02:01 | 39.32908 | -77.50062 | 21409 ft | 234 kts | 41° |
| 2026-04-12 02:02 | 39.33968 | -77.48468 | 21413 ft | 234 kts | 41° |
| 2026-04-12 02:02 | 39.35031 | -77.46869 | 21415 ft | 234 kts | 41° |
| 2026-04-12 02:02 | 39.36091 | -77.45274 | 21410 ft | 234 kts | 41° |
| 2026-04-12 02:02 | 39.37150 | -77.43680 | 21413 ft | 234 kts | 41° |
| 2026-04-12 02:03 | 39.38211 | -77.42081 | 21412 ft | 234 kts | 41° |
| 2026-04-12 02:03 | 39.39270 | -77.40485 | 21417 ft | 234 kts | 41° |
| 2026-04-12 02:03 | 39.40330 | -77.38888 | 21413 ft | 234 kts | 41° |
| 2026-04-12 02:03 | 39.41392 | -77.37286 | 21419 ft | 234 kts | 41° |
| 2026-04-12 02:04 | 39.42478 | -77.35681 | 21417 ft | 234 kts | 40° |
| 2026-04-12 02:04 | 39.43568 | -77.34119 | 21429 ft | 234 kts | 39° |
| 2026-04-12 02:04 | 39.44661 | -77.32564 | 21431 ft | 234 kts | 39° |
| 2026-04-12 02:04 | 39.45754 | -77.31010 | 21428 ft | 234 kts | 39° |
| 2026-04-12 02:05 | 39.46848 | -77.29450 | 21421 ft | 234 kts | 39° |
| 2026-04-12 02:05 | 39.47940 | -77.27888 | 21422 ft | 234 kts | 39° |
| 2026-04-12 02:05 | 39.49028 | -77.26327 | 21421 ft | 234 kts | 39° |
| 2026-04-12 02:05 | 39.50119 | -77.24760 | 21427 ft | 234 kts | 39° |
| 2026-04-12 02:06 | 39.51210 | -77.23190 | 21426 ft | 234 kts | 39° |
| 2026-04-12 02:06 | 39.52296 | -77.21627 | 21421 ft | 234 kts | 39° |
| 2026-04-12 02:06 | 39.53385 | -77.20057 | 21413 ft | 234 kts | 39° |
| 2026-04-12 02:06 | 39.54472 | -77.18489 | 21405 ft | 234 kts | 39° |
| 2026-04-12 02:07 | 39.55557 | -77.16922 | 21415 ft | 233 kts | 39° |
| 2026-04-12 02:07 | 39.56644 | -77.15354 | 21406 ft | 234 kts | 39° |
| 2026-04-12 02:07 | 39.57730 | -77.13786 | 21404 ft | 234 kts | 39° |
| 2026-04-12 02:07 | 39.58817 | -77.12216 | 21406 ft | 234 kts | 39° |
| 2026-04-12 02:08 | 39.59905 | -77.10643 | 21406 ft | 234 kts | 39° |
| 2026-04-12 02:08 | 39.60994 | -77.09068 | 21405 ft | 234 kts | 39° |
| 2026-04-12 02:08 | 39.62082 | -77.07492 | 21404 ft | 234 kts | 39° |
| 2026-04-12 02:08 | 39.63170 | -77.05917 | 21407 ft | 234 kts | 39° |
| 2026-04-12 02:09 | 39.64258 | -77.04342 | 21404 ft | 235 kts | 39° |
| 2026-04-12 02:09 | 39.65346 | -77.02765 | 21407 ft | 235 kts | 39° |
| 2026-04-12 02:09 | 39.66440 | -77.01179 | 21406 ft | 235 kts | 39° |
| 2026-04-12 02:09 | 39.67527 | -76.99600 | 21406 ft | 235 kts | 39° |
| 2026-04-12 02:10 | 39.68617 | -76.98018 | 21406 ft | 235 kts | 39° |
| 2026-04-12 02:10 | 39.69705 | -76.96438 | 21403 ft | 235 kts | 39° |
| 2026-04-12 02:10 | 39.70792 | -76.94858 | 21404 ft | 234 kts | 39° |
| 2026-04-12 02:10 | 39.71879 | -76.93278 | 21407 ft | 235 kts | 39° |
| 2026-04-12 02:11 | 39.72966 | -76.91697 | 21407 ft | 235 kts | 39° |
| 2026-04-12 02:11 | 39.74055 | -76.90112 | 21406 ft | 235 kts | 39° |
| 2026-04-12 02:11 | 39.75143 | -76.88529 | 21393 ft | 235 kts | 39° |
| 2026-04-12 02:11 | 39.76231 | -76.86943 | 21396 ft | 235 kts | 39° |
| 2026-04-12 02:12 | 39.77318 | -76.85358 | 21398 ft | 235 kts | 39° |
| 2026-04-12 02:12 | 39.78405 | -76.83772 | 21397 ft | 235 kts | 39° |
| 2026-04-12 02:12 | 39.79497 | -76.82180 | 21397 ft | 235 kts | 39° |
| 2026-04-12 02:12 | 39.80216 | -76.81130 | 21396 ft | 235 kts | 39° |
| 2026-04-12 02:13 | 39.81306 | -76.79539 | 21398 ft | 235 kts | 39° |
| 2026-04-12 02:13 | 39.82393 | -76.77950 | 21394 ft | 235 kts | 39° |
| 2026-04-12 02:13 | 39.83477 | -76.76365 | 21392 ft | 235 kts | 39° |
| 2026-04-12 02:13 | 39.84578 | -76.74754 | 21394 ft | 235 kts | 39° |
| 2026-04-12 02:14 | 39.85666 | -76.73162 | 21400 ft | 235 kts | 39° |
| 2026-04-12 02:14 | 39.86754 | -76.71569 | 21398 ft | 235 kts | 39° |
| 2026-04-12 02:14 | 39.87842 | -76.69976 | 21398 ft | 235 kts | 39° |
| 2026-04-12 02:14 | 39.88931 | -76.68379 | 21401 ft | 235 kts | 39° |
| 2026-04-12 02:15 | 39.90005 | -76.66805 | 21391 ft | 236 kts | 39° |
| 2026-04-12 02:15 | 39.91092 | -76.65209 | 21391 ft | 235 kts | 39° |
| 2026-04-12 02:15 | 39.92181 | -76.63611 | 21393 ft | 236 kts | 39° |
| 2026-04-12 02:15 | 39.93269 | -76.62013 | 21395 ft | 236 kts | 39° |
| 2026-04-12 02:16 | 39.94358 | -76.60414 | 21395 ft | 236 kts | 39° |
| 2026-04-12 02:16 | 39.95448 | -76.58811 | 21393 ft | 236 kts | 39° |
| 2026-04-12 02:16 | 39.96539 | -76.57206 | 21392 ft | 236 kts | 39° |
| 2026-04-12 02:16 | 39.97627 | -76.55604 | 21387 ft | 236 kts | 39° |
| 2026-04-12 02:17 | 39.98716 | -76.54001 | 21395 ft | 236 kts | 39° |
| 2026-04-12 02:17 | 39.99805 | -76.52396 | 21393 ft | 236 kts | 39° |
| 2026-04-12 02:17 | 40.00906 | -76.50772 | 21396 ft | 236 kts | 39° |
| 2026-04-12 02:17 | 40.01996 | -76.49166 | 21398 ft | 236 kts | 39° |
| 2026-04-12 02:18 | 40.03084 | -76.47560 | 21400 ft | 236 kts | 39° |
| 2026-04-12 02:18 | 40.04172 | -76.45953 | 21397 ft | 236 kts | 39° |
| 2026-04-12 02:18 | 40.05262 | -76.44344 | 21399 ft | 236 kts | 39° |
| 2026-04-12 02:18 | 40.06356 | -76.42737 | 21402 ft | 236 kts | 39° |
| 2026-04-12 02:19 | 40.07448 | -76.41134 | 21406 ft | 236 kts | 39° |
| 2026-04-12 02:19 | 40.08525 | -76.39553 | 21407 ft | 237 kts | 39° |
| 2026-04-12 02:19 | 40.09639 | -76.37917 | 21407 ft | 237 kts | 39° |
| 2026-04-12 02:19 | 40.10729 | -76.36315 | 21403 ft | 237 kts | 39° |
| 2026-04-12 02:20 | 40.11825 | -76.34701 | 21405 ft | 237 kts | 39° |
| 2026-04-12 02:20 | 40.12919 | -76.33090 | 21405 ft | 237 kts | 39° |
| 2026-04-12 02:20 | 40.14011 | -76.31482 | 21404 ft | 237 kts | 39° |
| 2026-04-12 02:20 | 40.15089 | -76.29892 | 21406 ft | 237 kts | 39° |
| 2026-04-12 02:21 | 40.16194 | -76.28262 | 21405 ft | 237 kts | 39° |
| 2026-04-12 02:21 | 40.17273 | -76.26669 | 21405 ft | 237 kts | 39° |
| 2026-04-12 02:21 | 40.18365 | -76.25058 | 21407 ft | 237 kts | 39° |
| 2026-04-12 02:21 | 40.19461 | -76.23437 | 21405 ft | 237 kts | 39° |
| 2026-04-12 02:22 | 40.20553 | -76.21823 | 21406 ft | 237 kts | 39° |
| 2026-04-12 02:22 | 40.21649 | -76.20202 | 21404 ft | 237 kts | 39° |
| 2026-04-12 02:22 | 40.22742 | -76.18585 | 21402 ft | 237 kts | 39° |
| 2026-04-12 02:22 | 40.23835 | -76.16966 | 21402 ft | 237 kts | 39° |
| 2026-04-12 02:23 | 40.24925 | -76.15351 | 21399 ft | 237 kts | 39° |
| 2026-04-12 02:23 | 40.26034 | -76.13707 | 21404 ft | 237 kts | 39° |
| 2026-04-12 02:23 | 40.27129 | -76.12084 | 21402 ft | 237 kts | 39° |
| 2026-04-12 02:23 | 40.28224 | -76.10459 | 21402 ft | 237 kts | 39° |
| 2026-04-12 02:24 | 40.29304 | -76.08855 | 21404 ft | 237 kts | 39° |
| 2026-04-12 02:24 | 40.30396 | -76.07232 | 21404 ft | 238 kts | 39° |
| 2026-04-12 02:24 | 40.31491 | -76.05606 | 21404 ft | 237 kts | 39° |
| 2026-04-12 02:24 | 40.32583 | -76.03982 | 21402 ft | 237 kts | 39° |
| 2026-04-12 02:25 | 40.33674 | -76.02359 | 21405 ft | 237 kts | 39° |
| 2026-04-12 02:25 | 40.34767 | -76.00731 | 21407 ft | 238 kts | 39° |
| 2026-04-12 02:25 | 40.35861 | -75.99102 | 21410 ft | 238 kts | 39° |
| 2026-04-12 02:25 | 40.36956 | -75.97470 | 21407 ft | 238 kts | 39° |
| 2026-04-12 02:26 | 40.38050 | -75.95839 | 21406 ft | 238 kts | 39° |
| 2026-04-12 02:26 | 40.39140 | -75.94213 | 21405 ft | 238 kts | 39° |
| 2026-04-12 02:26 | 40.40232 | -75.92583 | 21407 ft | 238 kts | 39° |
| 2026-04-12 02:26 | 40.41324 | -75.90952 | 21408 ft | 238 kts | 39° |
| 2026-04-12 02:27 | 40.42415 | -75.89322 | 21403 ft | 238 kts | 39° |
| 2026-04-12 02:27 | 40.43506 | -75.87688 | 21407 ft | 238 kts | 39° |
| 2026-04-12 02:27 | 40.44587 | -75.86029 | 21410 ft | 239 kts | 40° |
| 2026-04-12 02:27 | 40.45656 | -75.84359 | 21406 ft | 239 kts | 40° |
| 2026-04-12 02:28 | 40.46724 | -75.82682 | 21404 ft | 239 kts | 40° |
| 2026-04-12 02:28 | 40.47792 | -75.81003 | 21404 ft | 239 kts | 40° |
| 2026-04-12 02:28 | 40.48859 | -75.79329 | 21405 ft | 239 kts | 40° |
| 2026-04-12 02:28 | 40.49927 | -75.77657 | 21404 ft | 239 kts | 40° |
| 2026-04-12 02:29 | 40.50996 | -75.75983 | 21403 ft | 239 kts | 40° |
| 2026-04-12 02:29 | 40.52064 | -75.74312 | 21426 ft | 239 kts | 40° |
| 2026-04-12 02:29 | 40.53131 | -75.72643 | 21426 ft | 239 kts | 40° |
| 2026-04-12 02:29 | 40.54199 | -75.70971 | 21427 ft | 239 kts | 40° |
| 2026-04-12 02:30 | 40.55267 | -75.69298 | 21430 ft | 238 kts | 40° |
| 2026-04-12 02:30 | 40.56333 | -75.67629 | 21432 ft | 238 kts | 40° |
| 2026-04-12 02:30 | 40.57401 | -75.65955 | 21434 ft | 238 kts | 40° |
| 2026-04-12 02:30 | 40.58471 | -75.64278 | 21435 ft | 238 kts | 40° |
| 2026-04-12 02:31 | 40.59544 | -75.62594 | 21439 ft | 238 kts | 40° |
| 2026-04-12 02:31 | 40.60610 | -75.60921 | 21439 ft | 238 kts | 40° |
| 2026-04-12 02:31 | 40.61675 | -75.59249 | 21441 ft | 238 kts | 40° |
| 2026-04-12 02:31 | 40.62744 | -75.57570 | 21443 ft | 238 kts | 40° |
| 2026-04-12 02:32 | 40.63806 | -75.55899 | 21441 ft | 238 kts | 40° |
| 2026-04-12 02:32 | 40.64868 | -75.54229 | 21424 ft | 238 kts | 40° |
| 2026-04-12 02:32 | 40.65932 | -75.52553 | 21425 ft | 238 kts | 40° |
| 2026-04-12 02:32 | 40.66985 | -75.50897 | 21425 ft | 238 kts | 40° |
| 2026-04-12 02:33 | 40.68049 | -75.49221 | 21427 ft | 238 kts | 40° |
| 2026-04-12 02:33 | 40.69113 | -75.47544 | 21427 ft | 239 kts | 39° |
| 2026-04-12 02:33 | 40.70178 | -75.45863 | 21425 ft | 239 kts | 39° |
| 2026-04-12 02:33 | 40.71239 | -75.44189 | 21428 ft | 239 kts | 39° |
| 2026-04-12 02:34 | 40.72305 | -75.42505 | 21425 ft | 239 kts | 39° |
| 2026-04-12 02:34 | 40.73368 | -75.40825 | 21425 ft | 239 kts | 39° |
| 2026-04-12 02:34 | 40.74434 | -75.39141 | 21424 ft | 239 kts | 39° |
| 2026-04-12 02:34 | 40.75499 | -75.37456 | 21424 ft | 239 kts | 39° |
| 2026-04-12 02:35 | 40.76563 | -75.35772 | 21424 ft | 239 kts | 39° |
| 2026-04-12 02:35 | 40.77628 | -75.34085 | 21419 ft | 239 kts | 39° |
| 2026-04-12 02:35 | 40.78692 | -75.32400 | 21419 ft | 239 kts | 39° |
| 2026-04-12 02:35 | 40.79752 | -75.30718 | 21420 ft | 239 kts | 39° |
| 2026-04-12 02:36 | 40.80814 | -75.29034 | 21417 ft | 239 kts | 39° |
| 2026-04-12 02:36 | 40.81875 | -75.27349 | 21414 ft | 239 kts | 39° |
| 2026-04-12 02:36 | 40.82939 | -75.25661 | 21416 ft | 239 kts | 39° |
| 2026-04-12 02:36 | 40.84001 | -75.23975 | 21418 ft | 239 kts | 39° |
| 2026-04-12 02:37 | 40.85062 | -75.22289 | 21416 ft | 239 kts | 39° |
| 2026-04-12 02:37 | 40.86125 | -75.20598 | 21412 ft | 239 kts | 39° |
| 2026-04-12 02:37 | 40.87187 | -75.18907 | 21412 ft | 239 kts | 39° |
| 2026-04-12 02:37 | 40.88248 | -75.17218 | 21410 ft | 239 kts | 39° |
| 2026-04-12 02:38 | 40.89309 | -75.15529 | 21412 ft | 239 kts | 39° |
| 2026-04-12 02:38 | 40.90399 | -75.13793 | 21411 ft | 239 kts | 39° |
| 2026-04-12 02:38 | 40.91443 | -75.12129 | 21408 ft | 238 kts | 39° |
| 2026-04-12 02:38 | 40.92489 | -75.10460 | 21410 ft | 238 kts | 39° |
| 2026-04-12 02:39 | 40.93547 | -75.08769 | 21412 ft | 238 kts | 39° |
| 2026-04-12 02:39 | 40.94602 | -75.07084 | 21407 ft | 238 kts | 39° |
| 2026-04-12 02:39 | 40.95658 | -75.05396 | 21411 ft | 238 kts | 39° |
| 2026-04-12 02:39 | 40.96716 | -75.03705 | 21413 ft | 238 kts | 39° |
| 2026-04-12 02:40 | 40.97771 | -75.02016 | 21412 ft | 238 kts | 39° |
| 2026-04-12 02:40 | 40.98824 | -75.00330 | 21411 ft | 238 kts | 39° |
| 2026-04-12 02:40 | 40.99877 | -74.98644 | 21408 ft | 237 kts | 39° |
| 2026-04-12 02:40 | 41.00929 | -74.96959 | 21422 ft | 237 kts | 39° |
| 2026-04-12 02:41 | 41.01981 | -74.95271 | 21416 ft | 237 kts | 39° |
| 2026-04-12 02:41 | 41.03033 | -74.93585 | 21431 ft | 238 kts | 39° |
| 2026-04-12 02:41 | 41.04084 | -74.91898 | 21424 ft | 238 kts | 39° |
| 2026-04-12 02:41 | 41.05137 | -74.90206 | 21430 ft | 238 kts | 39° |
| 2026-04-12 02:42 | 41.06190 | -74.88514 | 21430 ft | 238 kts | 39° |
| 2026-04-12 02:42 | 41.07242 | -74.86822 | 21438 ft | 238 kts | 39° |
| 2026-04-12 02:42 | 41.08297 | -74.85125 | 21442 ft | 238 kts | 39° |
| 2026-04-12 02:43 | 41.10048 | -74.82307 | 21441 ft | 238 kts | 39° |
| 2026-04-12 02:43 | 41.11102 | -74.80607 | 21440 ft | 238 kts | 39° |
| 2026-04-12 02:43 | 41.12154 | -74.78911 | 21447 ft | 238 kts | 39° |
| 2026-04-12 02:43 | 41.13223 | -74.77188 | 21454 ft | 238 kts | 39° |
| 2026-04-12 02:44 | 41.14264 | -74.75508 | 21451 ft | 238 kts | 39° |
| 2026-04-12 02:44 | 41.15317 | -74.73809 | 21452 ft | 238 kts | 39° |
| 2026-04-12 02:44 | 41.16371 | -74.72107 | 21454 ft | 238 kts | 39° |
| 2026-04-12 02:44 | 41.17423 | -74.70405 | 21457 ft | 238 kts | 39° |
| 2026-04-12 02:45 | 41.18475 | -74.68704 | 21453 ft | 239 kts | 38° |
| 2026-04-12 02:45 | 41.19527 | -74.67000 | 21457 ft | 238 kts | 38° |
| 2026-04-12 02:45 | 41.20580 | -74.65294 | 21453 ft | 238 kts | 39° |
| 2026-04-12 02:45 | 41.21628 | -74.63595 | 21455 ft | 238 kts | 38° |
| 2026-04-12 02:46 | 41.22681 | -74.61889 | 21452 ft | 238 kts | 39° |
| 2026-04-12 02:46 | 41.23731 | -74.60186 | 21452 ft | 238 kts | 38° |
| 2026-04-12 02:46 | 41.24779 | -74.58486 | 21450 ft | 238 kts | 38° |
| 2026-04-12 02:46 | 41.25828 | -74.56781 | 21446 ft | 238 kts | 38° |
| 2026-04-12 02:47 | 41.26873 | -74.55083 | 21449 ft | 238 kts | 38° |
| 2026-04-12 02:47 | 41.27921 | -74.53379 | 21450 ft | 238 kts | 38° |
| 2026-04-12 02:47 | 41.28969 | -74.51676 | 21451 ft | 238 kts | 38° |
| 2026-04-12 02:47 | 41.30029 | -74.49951 | 21450 ft | 238 kts | 38° |
| 2026-04-12 02:48 | 41.31074 | -74.48249 | 21447 ft | 238 kts | 38° |
| 2026-04-12 02:48 | 41.32121 | -74.46543 | 21442 ft | 238 kts | 38° |
| 2026-04-12 02:48 | 41.33153 | -74.44817 | 21445 ft | 239 kts | 40° |
| 2026-04-12 02:48 | 41.34152 | -74.43081 | 21440 ft | 239 kts | 40° |
| 2026-04-12 02:49 | 41.35157 | -74.41310 | 21435 ft | 240 kts | 40° |
| 2026-04-12 02:49 | 41.36160 | -74.39540 | 21435 ft | 240 kts | 40° |
| 2026-04-12 02:49 | 41.37159 | -74.37779 | 21441 ft | 240 kts | 40° |
| 2026-04-12 02:49 | 41.38172 | -74.36001 | 21442 ft | 240 kts | 40° |
| 2026-04-12 02:50 | 41.39181 | -74.34232 | 21441 ft | 240 kts | 40° |
| 2026-04-12 02:50 | 41.40191 | -74.32463 | 21439 ft | 239 kts | 40° |
| 2026-04-12 02:50 | 41.41201 | -74.30696 | 21443 ft | 239 kts | 40° |
| 2026-04-12 02:50 | 41.42211 | -74.28927 | 21444 ft | 239 kts | 40° |
| 2026-04-12 02:51 | 41.43220 | -74.27161 | 21440 ft | 239 kts | 40° |
| 2026-04-12 02:51 | 41.44228 | -74.25396 | 21439 ft | 239 kts | 40° |
| 2026-04-12 02:51 | 41.45229 | -74.23641 | 21442 ft | 239 kts | 40° |
| 2026-04-12 02:51 | 41.46239 | -74.21872 | 21442 ft | 239 kts | 40° |
| 2026-04-12 02:52 | 41.47245 | -74.20107 | 21443 ft | 239 kts | 40° |
| 2026-04-12 02:52 | 41.48252 | -74.18340 | 21445 ft | 239 kts | 40° |
| 2026-04-12 02:52 | 41.49257 | -74.16575 | 21444 ft | 239 kts | 40° |
| 2026-04-12 02:52 | 41.50261 | -74.14810 | 21445 ft | 239 kts | 40° |
| 2026-04-12 02:53 | 41.51269 | -74.13038 | 21443 ft | 239 kts | 40° |
| 2026-04-12 02:53 | 41.52274 | -74.11271 | 21440 ft | 239 kts | 40° |
| 2026-04-12 02:53 | 41.54286 | -74.07727 | 21434 ft | 239 kts | 40° |
| 2026-04-12 02:54 | 41.55289 | -74.05959 | 21433 ft | 238 kts | 40° |
| 2026-04-12 02:54 | 41.56289 | -74.04194 | 21440 ft | 238 kts | 39° |
| 2026-04-12 02:54 | 41.57292 | -74.02425 | 21444 ft | 239 kts | 40° |
| 2026-04-12 02:54 | 41.58295 | -74.00655 | 21437 ft | 238 kts | 40° |
| 2026-04-12 02:55 | 41.59294 | -73.98889 | 21435 ft | 238 kts | 40° |
| 2026-04-12 02:55 | 41.60292 | -73.97123 | 21435 ft | 238 kts | 39° |
| 2026-04-12 02:55 | 41.61288 | -73.95361 | 21438 ft | 237 kts | 40° |
| 2026-04-12 02:55 | 41.62283 | -73.93602 | 21437 ft | 237 kts | 40° |
| 2026-04-12 02:56 | 41.63278 | -73.91840 | 21445 ft | 238 kts | 40° |
| 2026-04-12 02:56 | 41.64273 | -73.90078 | 21444 ft | 238 kts | 40° |
| 2026-04-12 02:56 | 41.65273 | -73.88307 | 21441 ft | 238 kts | 40° |
| 2026-04-12 02:56 | 41.66268 | -73.86542 | 21445 ft | 238 kts | 40° |
| 2026-04-12 02:57 | 41.67264 | -73.84773 | 21446 ft | 238 kts | 40° |
| 2026-04-12 02:57 | 41.68262 | -73.83001 | 21444 ft | 238 kts | 40° |
| 2026-04-12 02:57 | 41.69259 | -73.81230 | 21447 ft | 238 kts | 40° |
| 2026-04-12 02:57 | 41.70266 | -73.79440 | 21441 ft | 238 kts | 40° |
| 2026-04-12 02:58 | 41.71262 | -73.77668 | 21443 ft | 238 kts | 40° |
| 2026-04-12 02:58 | 41.72254 | -73.75902 | 21428 ft | 238 kts | 40° |
| 2026-04-12 02:58 | 41.73246 | -73.74136 | 21430 ft | 237 kts | 40° |
| 2026-04-12 02:58 | 41.74238 | -73.72367 | 21429 ft | 237 kts | 40° |
| 2026-04-12 02:59 | 41.75227 | -73.70602 | 21433 ft | 237 kts | 40° |
| 2026-04-12 02:59 | 41.76234 | -73.68809 | 21442 ft | 237 kts | 40° |
| 2026-04-12 02:59 | 41.77217 | -73.67056 | 21439 ft | 237 kts | 40° |
| 2026-04-12 02:59 | 41.78206 | -73.65288 | 21440 ft | 237 kts | 40° |
| 2026-04-12 03:00 | 41.79197 | -73.63518 | 21440 ft | 238 kts | 40° |
| 2026-04-12 03:00 | 41.80188 | -73.61745 | 21433 ft | 237 kts | 40° |
| 2026-04-12 03:00 | 41.81179 | -73.59971 | 21432 ft | 237 kts | 40° |
| 2026-04-12 03:00 | 41.82171 | -73.58195 | 21428 ft | 237 kts | 39° |
| 2026-04-12 03:01 | 41.83160 | -73.56425 | 21415 ft | 237 kts | 39° |
| 2026-04-12 03:01 | 41.84160 | -73.54632 | 21418 ft | 237 kts | 40° |
| 2026-04-12 03:01 | 41.85147 | -73.52861 | 21423 ft | 237 kts | 39° |
| 2026-04-12 03:01 | 41.86132 | -73.51091 | 21415 ft | 236 kts | 40° |
| 2026-04-12 03:02 | 41.87118 | -73.49322 | 21418 ft | 236 kts | 39° |
| 2026-04-12 03:02 | 41.88104 | -73.47551 | 21425 ft | 237 kts | 40° |
| 2026-04-12 03:02 | 41.89089 | -73.45779 | 21424 ft | 237 kts | 40° |
| 2026-04-12 03:02 | 41.90077 | -73.44004 | 21429 ft | 238 kts | 40° |
| 2026-04-12 03:03 | 41.91060 | -73.42214 | 21426 ft | 239 kts | 41° |
| 2026-04-12 03:03 | 41.92017 | -73.40391 | 21413 ft | 238 kts | 41° |
| 2026-04-12 03:03 | 41.92959 | -73.38561 | 21414 ft | 238 kts | 42° |
| 2026-04-12 03:03 | 41.93901 | -73.36727 | 21422 ft | 238 kts | 42° |
| 2026-04-12 03:04 | 41.94846 | -73.34891 | 21430 ft | 239 kts | 42° |
| 2026-04-12 03:04 | 41.95795 | -73.33054 | 21432 ft | 239 kts | 41° |
| 2026-04-12 03:04 | 41.96745 | -73.31219 | 21436 ft | 239 kts | 41° |
| 2026-04-12 03:04 | 41.97695 | -73.29382 | 21426 ft | 239 kts | 41° |
| 2026-04-12 03:05 | 41.98646 | -73.27548 | 21427 ft | 239 kts | 41° |
| 2026-04-12 03:05 | 41.99597 | -73.25714 | 21436 ft | 239 kts | 41° |
| 2026-04-12 03:05 | 42.00550 | -73.23876 | 21435 ft | 239 kts | 41° |
| 2026-04-12 03:05 | 42.01503 | -73.22035 | 21433 ft | 239 kts | 41° |
| 2026-04-12 03:06 | 42.02452 | -73.20199 | 21425 ft | 239 kts | 41° |
| 2026-04-12 03:06 | 42.03394 | -73.18378 | 21428 ft | 239 kts | 41° |
| 2026-04-12 03:06 | 42.04361 | -73.16508 | 21425 ft | 239 kts | 41° |
| 2026-04-12 03:06 | 42.05308 | -73.14674 | 21430 ft | 239 kts | 41° |
| 2026-04-12 03:07 | 42.06256 | -73.12839 | 21430 ft | 239 kts | 41° |
| 2026-04-12 03:07 | 42.06899 | -73.11594 | 21434 ft | 239 kts | 41° |
| 2026-04-12 03:07 | 42.08155 | -73.09160 | 21429 ft | 239 kts | 41° |
| 2026-04-12 03:07 | 42.09103 | -73.07322 | 21433 ft | 239 kts | 41° |
| 2026-04-12 03:08 | 42.10051 | -73.05482 | 21435 ft | 239 kts | 41° |
| 2026-04-12 03:08 | 42.11002 | -73.03634 | 21434 ft | 239 kts | 41° |
| 2026-04-12 03:08 | 42.11643 | -73.02387 | 21433 ft | 239 kts | 41° |
| 2026-04-12 03:08 | 42.12592 | -73.00542 | 21437 ft | 239 kts | 41° |
| 2026-04-12 03:09 | 42.13538 | -72.98701 | 21437 ft | 239 kts | 41° |
| 2026-04-12 03:09 | 42.14485 | -72.96859 | 21441 ft | 239 kts | 41° |
| 2026-04-12 03:09 | 42.15439 | -72.95021 | 21439 ft | 238 kts | 40° |
| 2026-04-12 03:09 | 42.16408 | -72.93207 | 21442 ft | 238 kts | 40° |
| 2026-04-12 03:10 | 42.17381 | -72.91405 | 21445 ft | 238 kts | 40° |
| 2026-04-12 03:10 | 42.18354 | -72.89604 | 21445 ft | 238 kts | 40° |
| 2026-04-12 03:10 | 42.19328 | -72.87797 | 21445 ft | 238 kts | 40° |
| 2026-04-12 03:10 | 42.20298 | -72.85992 | 21439 ft | 237 kts | 40° |
| 2026-04-12 03:11 | 42.21266 | -72.84189 | 21454 ft | 238 kts | 40° |
| 2026-04-12 03:11 | 42.22236 | -72.82378 | 21457 ft | 238 kts | 40° |
| 2026-04-12 03:11 | 42.23207 | -72.80563 | 21455 ft | 238 kts | 40° |
| 2026-04-12 03:11 | 42.24178 | -72.78746 | 21451 ft | 239 kts | 40° |
| 2026-04-12 03:12 | 42.25133 | -72.76955 | 21452 ft | 238 kts | 40° |
| 2026-04-12 03:12 | 42.26102 | -72.75136 | 21455 ft | 239 kts | 40° |
| 2026-04-12 03:12 | 42.27086 | -72.73290 | 21448 ft | 238 kts | 40° |
| 2026-04-12 03:12 | 42.28051 | -72.71476 | 21446 ft | 238 kts | 40° |
| 2026-04-12 03:13 | 42.29021 | -72.69652 | 21445 ft | 238 kts | 40° |
| 2026-04-12 03:13 | 42.29977 | -72.67855 | 21443 ft | 238 kts | 40° |
| 2026-04-12 03:13 | 42.30942 | -72.66040 | 21443 ft | 238 kts | 40° |
| 2026-04-12 03:13 | 42.31920 | -72.64199 | 21441 ft | 238 kts | 40° |
| 2026-04-12 03:14 | 42.32906 | -72.62357 | 21217 ft | 246 kts | 40° |
| 2026-04-12 03:14 | 42.33926 | -72.60461 | 20966 ft | 252 kts | 40° |
| 2026-04-12 03:14 | 42.34960 | -72.58525 | 20720 ft | 256 kts | 41° |
| 2026-04-12 03:14 | 42.36003 | -72.56562 | 20470 ft | 257 kts | 41° |
| 2026-04-12 03:15 | 42.37047 | -72.54590 | 20214 ft | 258 kts | 41° |
| 2026-04-12 03:15 | 42.38090 | -72.52615 | 19982 ft | 259 kts | 41° |
| 2026-04-12 03:15 | 42.39134 | -72.50637 | 19736 ft | 259 kts | 41° |
| 2026-04-12 03:15 | 42.40182 | -72.48652 | 19495 ft | 258 kts | 41° |
| 2026-04-12 03:16 | 42.41227 | -72.46672 | 19265 ft | 258 kts | 41° |
| 2026-04-12 03:16 | 42.42271 | -72.44693 | 19037 ft | 258 kts | 41° |
| 2026-04-12 03:16 | 42.43311 | -72.42718 | 18805 ft | 257 kts | 41° |
| 2026-04-12 03:16 | 42.44364 | -72.40719 | 18538 ft | 256 kts | 41° |
| 2026-04-12 03:17 | 42.45385 | -72.38778 | 18272 ft | 255 kts | 41° |
| 2026-04-12 03:17 | 42.46414 | -72.36821 | 18006 ft | 255 kts | 41° |
| 2026-04-12 03:17 | 42.47440 | -72.34873 | 17752 ft | 254 kts | 41° |
| 2026-04-12 03:17 | 42.48466 | -72.32921 | 17487 ft | 253 kts | 41° |
| 2026-04-12 03:18 | 42.49482 | -72.30987 | 17224 ft | 252 kts | 41° |
| 2026-04-12 03:18 | 42.50504 | -72.29043 | 16918 ft | 253 kts | 41° |
| 2026-04-12 03:18 | 42.51531 | -72.27093 | 16610 ft | 254 kts | 41° |
| 2026-04-12 03:18 | 42.52552 | -72.25147 | 16340 ft | 253 kts | 41° |
| 2026-04-12 03:19 | 42.53577 | -72.23198 | 16072 ft | 255 kts | 42° |
| 2026-04-12 03:19 | 42.54610 | -72.21237 | 15802 ft | 256 kts | 42° |
| 2026-04-12 03:19 | 42.55644 | -72.19265 | 15533 ft | 256 kts | 42° |
| 2026-04-12 03:19 | 42.56675 | -72.17297 | 15268 ft | 256 kts | 42° |
| 2026-04-12 03:20 | 42.57703 | -72.15328 | 14946 ft | 256 kts | 43° |
| 2026-04-12 03:20 | 42.58690 | -72.13394 | 14462 ft | 244 kts | 43° |
| 2026-04-12 03:20 | 42.59637 | -72.11525 | 13952 ft | 237 kts | 43° |
| 2026-04-12 03:20 | 42.60571 | -72.09702 | 13426 ft | 232 kts | 43° |
| 2026-04-12 03:21 | 42.61503 | -72.07901 | 12890 ft | 229 kts | 43° |
| 2026-04-12 03:21 | 42.62346 | -72.06282 | 12415 ft | 226 kts | 43° |
| 2026-04-12 03:21 | 42.63249 | -72.04552 | 11915 ft | 223 kts | 43° |
| 2026-04-12 03:21 | 42.64142 | -72.02840 | 11405 ft | 220 kts | 43° |
| 2026-04-12 03:22 | 42.65012 | -72.01165 | 11083 ft | 210 kts | 44° |
| 2026-04-12 03:22 | 42.65807 | -71.99606 | 11044 ft | 194 kts | 43° |
| 2026-04-12 03:22 | 42.66559 | -71.98141 | 11034 ft | 184 kts | 41° |
| 2026-04-12 03:22 | 42.67283 | -71.96748 | 11025 ft | 178 kts | 41° |
| 2026-04-12 03:23 | 42.68006 | -71.95378 | 10802 ft | 186 kts | 41° |
| 2026-04-12 03:23 | 42.68801 | -71.93897 | 10322 ft | 200 kts | 43° |
| 2026-04-12 03:23 | 42.69622 | -71.92332 | 9797 ft | 206 kts | 45° |
| 2026-04-12 03:23 | 42.70447 | -71.90735 | 9269 ft | 207 kts | 45° |
| 2026-04-12 03:24 | 42.71272 | -71.89131 | 8750 ft | 206 kts | 46° |
| 2026-04-12 03:24 | 42.72091 | -71.87541 | 8227 ft | 205 kts | 46° |
| 2026-04-12 03:24 | 42.72907 | -71.85958 | 7714 ft | 203 kts | 47° |
| 2026-04-12 03:24 | 42.73708 | -71.84391 | 7214 ft | 201 kts | 49° |
| 2026-04-12 03:25 | 42.74474 | -71.82806 | 6724 ft | 200 kts | 50° |
| 2026-04-12 03:25 | 42.75227 | -71.81226 | 6190 ft | 198 kts | 50° |
| 2026-04-12 03:25 | 42.75976 | -71.79659 | 5661 ft | 197 kts | 50° |
| 2026-04-12 03:25 | 42.76729 | -71.78091 | 5145 ft | 197 kts | 50° |
| 2026-04-12 03:26 | 42.77458 | -71.76617 | 5062 ft | 177 kts | 43° |
| 2026-04-12 03:26 | 42.78044 | -71.75203 | 5036 ft | 177 kts | 73° |
| 2026-04-12 03:26 | 42.78006 | -71.73528 | 5032 ft | 176 kts | 90° |
| 2026-04-12 03:26 | 42.77849 | -71.71888 | 5029 ft | 173 kts | 92° |
| 2026-04-12 03:27 | 42.77663 | -71.70280 | 5031 ft | 171 kts | 93° |
| 2026-04-12 03:27 | 42.77466 | -71.68684 | 5037 ft | 170 kts | 94° |
| 2026-04-12 03:27 | 42.77267 | -71.67094 | 5038 ft | 170 kts | 94° |
| 2026-04-12 03:27 | 42.77074 | -71.65577 | 5048 ft | 170 kts | 94° |
| 2026-04-12 03:28 | 42.76874 | -71.64018 | 5045 ft | 171 kts | 94° |
| 2026-04-12 03:28 | 42.76672 | -71.62424 | 5039 ft | 170 kts | 94° |
| 2026-04-12 03:28 | 42.76469 | -71.60834 | 5041 ft | 170 kts | 94° |
| 2026-04-12 03:28 | 42.76267 | -71.59249 | 5035 ft | 170 kts | 94° |
| 2026-04-12 03:29 | 42.76065 | -71.57665 | 5043 ft | 170 kts | 94° |
| 2026-04-12 03:29 | 42.75862 | -71.56078 | 5038 ft | 169 kts | 94° |
| 2026-04-12 03:29 | 42.75660 | -71.54503 | 5037 ft | 169 kts | 94° |
| 2026-04-12 03:29 | 42.75454 | -71.52928 | 5040 ft | 169 kts | 94° |
| 2026-04-12 03:30 | 42.75247 | -71.51352 | 5006 ft | 171 kts | 94° |
| 2026-04-12 03:30 | 42.75034 | -71.49667 | 4486 ft | 193 kts | 94° |
| 2026-04-12 03:30 | 42.74806 | -71.47791 | 3969 ft | 202 kts | 94° |
| 2026-04-12 03:30 | 42.74574 | -71.45892 | 3441 ft | 204 kts | 94° |
| 2026-04-12 03:31 | 42.74338 | -71.43985 | 2915 ft | 204 kts | 94° |
| 2026-04-12 03:31 | 42.74093 | -71.42093 | 2445 ft | 201 kts | 94° |
| 2026-04-12 03:31 | 42.73852 | -71.40272 | 2216 ft | 190 kts | 94° |
| 2026-04-12 03:31 | 42.73620 | -71.38549 | 2113 ft | 180 kts | 93° |
| 2026-04-12 03:32 | 42.73783 | -71.37018 | 2045 ft | 155 kts | 51° |
| 2026-04-12 03:32 | 42.74388 | -71.35900 | 1982 ft | 142 kts | 43° |
| 2026-04-12 03:32 | 42.75011 | -71.34891 | 1991 ft | 137 kts | 40° |
| 2026-04-12 03:32 | 42.75616 | -71.33952 | 1999 ft | 124 kts | 39° |
| 2026-04-12 03:33 | 42.76293 | -71.33466 | 2019 ft | 105 kts | 6° |
| 2026-04-12 03:33 | 42.76942 | -71.33698 | 2016 ft | 97 kts | 330° |
| 2026-04-12 03:33 | 42.77569 | -71.34131 | 2030 ft | 107 kts | 335° |
| 2026-04-12 03:33 | 42.78280 | -71.34579 | 2054 ft | 117 kts | 336° |
| 2026-04-12 03:34 | 42.79046 | -71.35046 | 2053 ft | 123 kts | 336° |
| 2026-04-12 03:34 | 42.79848 | -71.35510 | 2059 ft | 127 kts | 337° |
| 2026-04-12 03:34 | 42.80656 | -71.35978 | 2046 ft | 122 kts | 337° |
| 2026-04-12 03:34 | 42.81385 | -71.36400 | 2038 ft | 104 kts | 337° |
| 2026-04-12 03:35 | 42.81988 | -71.36750 | 2033 ft | 88 kts | 336° |
| 2026-04-12 03:35 | 42.82521 | -71.37068 | 2027 ft | 79 kts | 336° |
| 2026-04-12 03:35 | 42.83001 | -71.37358 | 1983 ft | 71 kts | 336° |
| 2026-04-12 03:35 | 42.83475 | -71.37641 | 2009 ft | 80 kts | 336° |
| 2026-04-12 03:36 | 42.84008 | -71.37954 | 2021 ft | 84 kts | 336° |
| 2026-04-12 03:36 | 42.84499 | -71.38242 | 1982 ft | 75 kts | 336° |
| 2026-04-12 03:36 | 42.84986 | -71.38530 | 1856 ft | 77 kts | 337° |
| 2026-04-12 03:36 | 42.85477 | -71.38818 | 1733 ft | 76 kts | 336° |
| 2026-04-12 03:37 | 42.85960 | -71.39096 | 1628 ft | 75 kts | 336° |
| 2026-04-12 03:37 | 42.86443 | -71.39380 | 1534 ft | 76 kts | 335° |
| 2026-04-12 03:37 | 42.86932 | -71.39669 | 1420 ft | 77 kts | 335° |
| 2026-04-12 03:37 | 42.87421 | -71.39969 | 1326 ft | 78 kts | 335° |
| 2026-04-12 03:38 | 42.87922 | -71.40271 | 1224 ft | 80 kts | 336° |
| 2026-04-12 03:38 | 42.88269 | -71.40480 | 1136 ft | 81 kts | 336° |
| 2026-04-12 03:38 | 42.88792 | -71.40784 | 1011 ft | 82 kts | 337° |
| 2026-04-12 03:38 | 42.89320 | -71.41088 | 902 ft | 80 kts | 337° |
| 2026-04-12 03:39 | 42.89785 | -71.41354 | 787 ft | 68 kts | 336° |
| 2026-04-12 03:39 | 42.90225 | -71.41624 | 704 ft | 71 kts | 335° |
| 2026-04-12 03:39 | 42.90690 | -71.41907 | 613 ft | 75 kts | 335° |
| 2026-04-12 03:39 | 42.91175 | -71.42187 | 493 ft | 74 kts | 336° |
| 2026-04-12 03:40 | 42.91641 | -71.42465 | 379 ft | 71 kts | 338° |
| 2026-04-12 03:40 | 42.92068 | -71.42714 | 269 ft | 56 kts | 337° |
| 2026-04-12 03:40 | 42.92338 | -71.42871 | 247 ft | 34 kts | 336° |
| 2026-04-12 03:40 | 42.92548 | -71.42994 | 241 ft | 33 kts | 337° |
| 2026-04-12 03:41 | 42.92727 | -71.43092 | 233 ft | 20 kts | 354° |
| 2026-04-12 03:41 | 42.92794 | -71.43005 | 233 ft | 14 kts | 29° |
| 2026-04-12 03:41 | 42.92844 | -71.43009 | 233 ft | 7 kts | 339° |
| 2026-04-12 03:41 | 42.92917 | -71.43049 | 233 ft | 17 kts | 338° |
| 2026-04-12 03:42 | 42.93040 | -71.43120 | 233 ft | 16 kts | 336° |
| 2026-04-12 03:42 | 42.93155 | -71.43186 | 232 ft | 17 kts | 336° |
| 2026-04-12 03:42 | 42.93276 | -71.43261 | 230 ft | 21 kts | 337° |
| 2026-04-12 03:42 | 42.93388 | -71.43289 | 230 ft | 19 kts | 15° |
| 2026-04-12 03:43 | 42.93406 | -71.43226 | 230 ft | 0 kts | 152° |